createdAt,value
2023-03-30T06:16:20.555Z,59.81
2023-03-30T06:27:03.791Z,55.85
2023-03-30T06:29:31.522Z,55.45
2023-03-30T06:31:59.262Z,54.88
2023-03-30T06:34:26.661Z,54.40
2023-03-30T06:36:54.046Z,53.50
2023-03-30T06:39:22.796Z,53.14
2023-03-30T06:41:50.155Z,52.60
2023-03-30T06:44:18.002Z,52.14
2023-03-30T06:46:45.373Z,51.88
2023-03-30T06:49:13.248Z,52.14
2023-03-30T06:51:42.045Z,51.59
2023-03-30T06:54:09.582Z,51.56
2023-03-30T06:56:36.966Z,51.47
2023-03-30T06:59:05.533Z,51.25
2023-03-30T07:01:33.662Z,51.01
2023-03-30T07:04:01.119Z,50.31
2023-03-30T07:06:28.532Z,50.55
2023-03-30T07:08:56.050Z,50.64
2023-03-30T07:11:23.605Z,50.25
2023-03-30T07:13:51.087Z,50.57
2023-03-30T07:16:18.543Z,50.16
2023-03-30T07:18:46.016Z,49.66
2023-03-30T07:21:14.347Z,49.81
2023-03-30T07:23:43.461Z,49.73
2023-03-30T07:26:12.120Z,49.72
2023-03-30T07:28:40.497Z,49.64
2023-03-30T07:31:13.880Z,49.54
2023-03-30T07:33:42.058Z,48.91
2023-03-30T07:36:10.232Z,49.06
2023-03-30T07:38:37.981Z,49.05
2023-03-30T07:41:13.261Z,48.74
2023-03-30T07:43:41.465Z,49.12
2023-03-30T07:46:12.535Z,48.95
2023-03-30T07:48:41.465Z,49.29
2023-03-30T07:51:14.001Z,49.95
2023-03-30T07:53:42.178Z,49.79
2023-03-30T07:56:10.582Z,49.76
2023-03-30T07:58:39.232Z,49.94
2023-03-30T08:01:06.919Z,49.96
2023-03-30T08:03:34.950Z,50.31
2023-03-30T08:06:05.606Z,49.79
2023-03-30T08:08:35.058Z,49.57
2023-03-30T08:11:02.820Z,49.75
2023-03-30T08:13:31.808Z,48.89
2023-03-30T08:15:59.405Z,49.41
2023-03-30T08:18:29.050Z,49.51
2023-03-30T08:20:56.888Z,49.38
2023-03-30T08:23:25.135Z,49.69
2023-03-30T08:25:56.101Z,49.83
2023-03-30T08:28:23.576Z,50.59
2023-03-30T08:30:51.356Z,50.16
2023-03-30T08:33:19.228Z,50.63
2023-03-30T08:35:48.139Z,54.31
2023-03-30T08:38:19.398Z,55.78
2023-03-30T08:40:51.047Z,59.09
2023-03-30T08:44:02.705Z,60.00
2023-03-30T08:46:30.974Z,61.81
2023-03-30T08:49:18.818Z,65.00
2023-03-30T08:51:50.018Z,63.34
2023-03-30T08:54:22.053Z,63.01
2023-03-30T08:58:02.879Z,63.82
2023-03-30T09:00:59.097Z,66.35
2023-03-30T09:03:52.079Z,66.50
2023-03-30T09:06:47.109Z,65.20
2023-03-30T09:09:24.931Z,66.14
2023-03-30T09:12:34.356Z,65.95
2023-03-30T09:15:52.423Z,65.98
2023-03-30T09:18:31.885Z,65.72
2023-03-30T09:21:11.084Z,65.85
2023-03-30T09:23:40.059Z,65.88
2023-03-30T09:27:04.572Z,66.91
2023-03-30T09:29:53.461Z,69.21
2023-03-30T09:32:38.050Z,64.55
2023-03-30T09:35:24.997Z,65.46
2023-03-30T09:37:52.448Z,64.43
2023-03-30T09:41:35.300Z,67.26
2023-03-30T09:44:03.046Z,64.68
2023-03-30T09:46:31.078Z,63.65
2023-03-30T09:49:17.369Z,64.69
2023-03-30T09:52:08.504Z,65.18
2023-03-30T09:54:41.793Z,64.34
2023-03-30T09:57:32.983Z,64.73
2023-03-30T10:00:21.809Z,65.74
2023-03-30T10:03:03.722Z,65.91
2023-03-30T10:05:37.958Z,63.74
2023-03-30T10:08:22.934Z,63.57
2023-03-30T10:10:58.479Z,63.62
2023-03-30T10:13:42.245Z,63.96
2023-03-30T10:16:33.429Z,63.35
2023-03-30T10:19:16.831Z,62.64
2023-03-30T10:21:47.073Z,63.36
2023-03-30T10:24:14.413Z,64.50
2023-03-30T10:26:47.427Z,63.14
2023-03-30T10:29:22.903Z,64.25
2023-03-30T10:32:16.284Z,63.92
2023-03-30T10:35:01.976Z,62.41
2023-03-30T10:37:42.940Z,62.44
2023-03-30T10:40:40.966Z,63.09
2023-03-30T10:43:32.999Z,63.24
2023-03-30T10:46:30.382Z,63.61
2023-03-30T10:49:54.242Z,63.02
2023-03-30T10:53:03.876Z,65.20
2023-03-30T10:56:22.064Z,66.97
2023-03-30T10:59:49.523Z,65.73
2023-03-30T11:03:03.791Z,66.36
2023-03-30T11:05:46.285Z,66.06
2023-03-30T11:08:38.286Z,65.21
2023-03-30T11:11:07.299Z,66.43
2023-03-30T11:13:43.975Z,59.51
2023-03-30T11:16:31.608Z,61.08
2023-03-30T11:19:39.978Z,59.22
2023-03-30T11:22:47.418Z,57.87
2023-03-30T11:25:29.851Z,57.96
2023-03-30T11:29:17.192Z,59.77
2023-03-30T11:32:17.453Z,58.96
2023-03-30T11:35:31.767Z,59.10
2023-03-30T11:38:23.543Z,60.43
2023-03-30T11:41:33.898Z,63.11
2023-03-30T11:44:01.857Z,65.14
2023-03-30T11:47:14.794Z,65.74
2023-03-30T11:50:30.282Z,66.71
2023-03-30T11:53:45.922Z,64.75
2023-03-30T11:57:00.543Z,66.21
2023-03-30T12:00:41.116Z,65.06
2023-03-30T12:03:45.188Z,64.81
2023-03-30T12:07:00.663Z,64.92
2023-03-30T12:09:54.608Z,64.49
2023-03-30T12:12:39.369Z,62.75
2023-03-30T12:15:16.044Z,60.81
2023-03-30T12:18:02.990Z,60.80
2023-03-30T12:21:16.672Z,59.26
2023-03-30T12:23:54.678Z,58.25
2023-03-30T12:26:34.361Z,57.27
2023-03-30T12:29:48.096Z,53.54
2023-03-30T12:32:03.304Z,51.56
2023-03-30T12:34:41.652Z,50.24
2023-03-30T12:37:38.218Z,49.69
2023-03-30T12:40:26.211Z,47.24
2023-03-30T12:43:24.104Z,45.27
2023-03-30T12:46:45.323Z,45.25
2023-03-30T12:50:04.401Z,45.87
2023-03-30T12:53:32.284Z,45.96
2023-03-30T12:56:22.624Z,47.77
2023-03-30T12:59:42.963Z,46.60
2023-03-30T13:03:12.443Z,45.62
2023-03-30T13:05:45.041Z,46.34
2023-03-30T13:08:38.415Z,46.58
2023-03-30T13:11:22.798Z,45.05
2023-03-30T13:14:11.320Z,44.56
2023-03-30T13:17:20.502Z,42.58
2023-03-30T13:20:29.224Z,41.52
2023-03-30T13:23:32.432Z,40.04
2023-03-30T13:26:34.616Z,38.57
2023-03-30T13:29:17.236Z,38.20
2023-03-30T13:32:41.450Z,36.87
2023-03-30T13:36:04.528Z,36.20
2023-03-30T13:40:01.434Z,35.66
2023-03-30T13:43:20.126Z,34.22
2023-03-30T13:46:45.206Z,32.83
2023-03-30T13:49:58.071Z,34.21
2023-03-30T13:52:41.345Z,33.97
2023-03-30T13:55:37.282Z,33.21
2023-03-30T13:58:30.837Z,31.67
2023-03-30T14:01:10.711Z,31.46
2023-03-30T14:04:00.942Z,30.91
2023-03-30T14:06:34.550Z,30.78
2023-03-30T14:09:07.698Z,30.42
2023-03-30T14:11:45.605Z,30.09
2023-03-30T14:14:47.398Z,30.09
2023-03-30T14:17:22.700Z,29.02
2023-03-30T14:20:45.628Z,29.55
2023-03-30T14:23:32.513Z,28.25
2023-03-30T14:26:18.575Z,28.72
2023-03-30T14:28:46.972Z,27.29
2023-03-30T14:31:22.328Z,28.02
2023-03-30T14:33:50.104Z,28.10
2023-03-30T14:36:20.691Z,28.16
2023-03-30T14:38:53.956Z,28.30
2023-03-30T14:41:28.407Z,28.90
2023-03-30T14:44:07.550Z,29.37
2023-03-30T14:46:50.067Z,28.68
2023-03-30T14:49:32.706Z,28.31
2023-03-30T14:52:27.526Z,28.45
2023-03-30T14:55:05.097Z,27.03
2023-03-30T14:57:40.537Z,27.22
2023-03-30T15:00:23.001Z,27.02
2023-03-30T15:03:01.651Z,28.23
2023-03-30T15:05:43.004Z,28.74
2023-03-30T15:08:27.930Z,28.45
2023-03-30T15:11:21.617Z,28.14
2023-03-30T15:14:03.990Z,27.39
2023-03-30T15:16:34.063Z,27.99
2023-03-30T15:19:24.512Z,28.66
2023-03-30T15:21:54.712Z,28.55
2023-03-30T15:24:32.361Z,29.77
2023-03-30T15:27:06.789Z,30.54
2023-03-30T15:29:34.655Z,31.28
2023-03-30T15:32:26.082Z,31.63
2023-03-30T15:35:16.019Z,32.10
2023-03-30T15:38:04.361Z,32.21
2023-03-30T15:40:39.129Z,33.02
2023-03-30T15:43:21.558Z,34.05
2023-03-30T15:46:04.626Z,34.59
2023-03-30T15:48:45.960Z,34.64
2023-03-30T15:51:43.636Z,35.13
2023-03-30T15:54:22.674Z,35.89
2023-03-30T15:57:18.099Z,35.78
2023-03-30T15:59:51.244Z,35.63
2023-03-30T16:02:40.426Z,35.69
2023-03-30T16:05:22.841Z,35.40
2023-03-30T16:07:50.717Z,34.58
2023-03-30T16:10:28.275Z,34.37
2023-03-30T16:12:58.443Z,33.54
2023-03-30T16:15:37.891Z,32.96
2023-03-30T16:18:13.346Z,32.63
2023-03-30T16:20:40.870Z,33.41
2023-03-30T16:23:09.335Z,34.13
2023-03-30T16:25:44.692Z,34.45
2023-03-30T16:28:21.859Z,34.25
2023-03-30T16:30:55.529Z,33.53
2023-03-30T16:33:24.520Z,33.44
2023-03-30T16:35:52.145Z,33.60
2023-03-30T16:38:19.834Z,34.08
2023-03-30T16:40:58.662Z,35.37
2023-03-30T16:43:27.388Z,37.12
2023-03-30T16:45:55.119Z,36.98
2023-03-30T16:48:24.365Z,36.25
2023-03-30T16:50:57.140Z,36.30
2023-03-30T16:53:24.942Z,36.20
2023-03-30T16:55:52.360Z,36.21
2023-03-30T16:58:19.761Z,36.63
2023-03-30T17:00:53.247Z,36.59
2023-03-30T17:03:20.970Z,36.67
2023-03-30T17:05:49.071Z,37.47
2023-03-30T17:08:27.595Z,37.95
2023-03-30T17:11:05.226Z,37.98
2023-03-30T17:13:32.969Z,38.27
2023-03-30T17:16:02.953Z,38.80
2023-03-30T17:18:32.108Z,38.75
2023-03-30T17:21:03.207Z,39.13
2023-03-30T17:23:33.124Z,38.90
2023-03-30T17:26:02.556Z,39.11
2023-03-30T17:28:35.617Z,39.63
2023-03-30T17:31:12.174Z,39.43
2023-03-30T17:33:39.968Z,39.23
2023-03-30T17:36:23.237Z,39.49
2023-03-30T17:38:51.923Z,39.48
2023-03-30T17:41:20.795Z,39.24
2023-03-30T17:43:49.079Z,39.51
2023-03-30T17:46:19.775Z,40.39
2023-03-30T17:48:47.682Z,40.36
2023-03-30T17:51:15.117Z,40.26
2023-03-30T17:53:43.758Z,40.25
2023-03-30T17:56:14.563Z,40.32
2023-03-30T17:58:42.056Z,40.65
2023-03-30T18:01:12.437Z,41.18
2023-03-30T18:03:40.842Z,41.75
2023-03-30T18:06:11.795Z,41.36
2023-03-30T18:08:39.771Z,40.68
2023-03-30T18:11:07.467Z,40.94
2023-03-30T18:13:35.142Z,40.44
2023-03-30T18:16:02.786Z,40.68
2023-03-30T18:18:32.119Z,39.80
2023-03-30T18:21:06.333Z,41.03
2023-03-30T18:23:35.171Z,41.07
2023-03-30T18:26:10.262Z,40.35
2023-03-30T18:28:42.524Z,39.71
2023-03-30T18:31:10.370Z,39.35
2023-03-30T18:33:39.438Z,38.50
2023-03-30T18:36:13.270Z,38.46
2023-03-30T18:38:41.379Z,38.40
2023-03-30T18:41:13.301Z,38.00
2023-03-30T18:43:40.741Z,37.94
2023-03-30T18:46:12.773Z,37.66
2023-03-30T18:48:40.465Z,37.86
2023-03-30T18:51:11.940Z,37.60
2023-03-30T18:53:39.562Z,37.41
2023-03-30T18:56:07.483Z,37.66
2023-03-30T18:58:42.425Z,37.41
2023-03-30T19:01:12.963Z,38.14
2023-03-30T19:03:40.756Z,37.71
2023-03-30T19:06:24.547Z,37.76
2023-03-30T19:08:52.072Z,37.14
2023-03-30T19:11:24.456Z,37.04
2023-03-30T19:13:52.564Z,37.47
2023-03-30T19:16:21.111Z,38.56
2023-03-30T19:18:49.598Z,38.14
2023-03-30T19:21:18.203Z,37.40
2023-03-30T19:23:45.870Z,37.46
2023-03-30T19:26:13.392Z,37.84
2023-03-30T19:28:40.867Z,37.91
2023-03-30T19:31:15.678Z,37.74
2023-03-30T19:33:44.775Z,38.01
2023-03-30T19:36:12.385Z,37.68
2023-03-30T19:38:41.814Z,37.70
2023-03-30T19:41:09.446Z,38.17
2023-03-30T19:43:36.872Z,38.10
2023-03-30T19:46:05.123Z,37.75
2023-03-30T19:48:32.591Z,38.13
2023-03-30T19:50:59.967Z,38.11
2023-03-30T19:53:27.381Z,38.25
2023-03-30T19:55:54.914Z,38.91
2023-03-30T19:58:22.298Z,39.40
2023-03-30T20:00:51.249Z,38.52
2023-03-30T20:03:18.739Z,39.03
2023-03-30T20:05:50.780Z,38.38
2023-03-30T20:08:24.521Z,38.36
2023-03-30T20:10:53.380Z,38.85
2023-03-30T20:13:22.249Z,38.62
2023-03-30T20:15:55.152Z,38.96
2023-03-30T20:18:23.763Z,38.47
2023-03-30T20:20:51.436Z,39.64
2023-03-30T20:23:18.819Z,39.66
2023-03-30T20:25:49.482Z,39.78
2023-03-30T20:28:17.958Z,40.64
2023-03-30T20:30:45.625Z,40.44
2023-03-30T20:33:13.478Z,40.75
2023-03-30T20:35:41.077Z,41.04
2023-03-30T20:38:08.677Z,41.06
2023-03-30T20:40:36.211Z,40.50
2023-03-30T20:43:03.827Z,40.09
2023-03-30T20:45:32.272Z,40.28
2023-03-30T20:48:06.293Z,40.27
2023-03-30T20:50:35.073Z,40.40
2023-03-30T20:53:02.694Z,40.61
2023-03-30T20:55:30.069Z,40.59
2023-03-30T20:57:57.508Z,40.81
2023-03-30T21:00:25.059Z,40.54
2023-03-30T21:02:52.622Z,40.43
2023-03-30T21:05:20.133Z,40.49
2023-03-30T21:07:48.600Z,40.42
2023-03-30T21:10:16.601Z,40.78
2023-03-30T21:12:44.089Z,40.46
2023-03-30T21:15:12.114Z,40.64
2023-03-30T21:17:39.569Z,40.55
2023-03-30T21:20:09.402Z,41.29
2023-03-30T21:22:37.037Z,41.20
2023-03-30T21:25:04.947Z,40.89
2023-03-30T21:27:32.334Z,40.66
2023-03-30T21:29:59.722Z,41.94
2023-03-30T21:32:28.660Z,40.88
2023-03-30T21:34:57.546Z,41.44
2023-03-30T21:37:25.003Z,41.98
2023-03-30T21:39:52.744Z,41.21
2023-03-30T21:42:20.124Z,42.23
2023-03-30T21:44:47.521Z,41.87
2023-03-30T21:47:16.760Z,42.11
2023-03-30T21:49:44.188Z,41.90
2023-03-30T21:52:11.921Z,42.01
2023-03-30T21:54:39.525Z,42.22
2023-03-30T21:57:07.023Z,42.01
2023-03-30T21:59:34.614Z,41.86
2023-03-30T22:02:02.066Z,42.22
2023-03-30T22:04:29.456Z,41.53
2023-03-30T22:06:57.313Z,41.72
2023-03-30T22:09:24.751Z,41.77
2023-03-30T22:11:54.156Z,41.87
2023-03-30T22:14:22.792Z,41.96
2023-03-30T22:16:50.316Z,41.98
2023-03-30T22:19:19.098Z,42.18
2023-03-30T22:21:46.584Z,42.38
2023-03-30T22:24:13.968Z,42.26
2023-03-30T22:26:41.863Z,42.54
2023-03-30T22:29:09.308Z,42.59
2023-03-30T22:31:36.723Z,42.58
2023-03-30T22:34:04.688Z,42.73
2023-03-30T22:36:32.313Z,42.50
2023-03-30T22:39:02.529Z,43.23
2023-03-30T22:41:30.194Z,42.90
2023-03-30T22:43:59.037Z,42.71
2023-03-30T22:46:28.063Z,42.74
2023-03-30T22:48:56.237Z,43.39
2023-03-30T22:51:28.484Z,42.50
2023-03-30T22:53:59.474Z,42.87
2023-03-30T22:56:29.671Z,43.14
2023-03-30T22:58:59.979Z,42.39
2023-03-30T23:01:29.257Z,41.96
2023-03-30T23:03:59.704Z,43.31
2023-03-30T23:06:27.585Z,42.87
2023-03-30T23:08:55.098Z,41.76
2023-03-30T23:11:22.564Z,41.83
2023-03-30T23:13:50.099Z,42.00
2023-03-30T23:16:18.046Z,42.48
2023-03-30T23:18:45.505Z,40.86
2023-03-30T23:21:14.151Z,41.63
2023-03-30T23:23:41.971Z,41.53
2023-03-30T23:26:11.599Z,41.82
2023-03-30T23:28:42.783Z,41.62
2023-03-30T23:31:16.643Z,42.23
2023-03-30T23:33:44.741Z,41.63
2023-03-30T23:36:19.382Z,42.13
2023-03-30T23:38:47.467Z,42.92
2023-03-30T23:41:19.566Z,42.62
2023-03-30T23:43:47.957Z,43.90
2023-03-30T23:46:16.130Z,46.01
2023-03-30T23:48:43.757Z,48.85
2023-03-30T23:51:12.390Z,56.59
2023-03-30T23:53:40.431Z,58.87
2023-03-30T23:56:13.948Z,58.85
2023-03-30T23:58:41.674Z,60.43
